Athol, Idaho
Current Conditions -  °F | °C
As of 11:15 AM on Monday 22 Dec 2014 (Local Time) from KCOE Reporting Station
Clear Clear  
Wind Chill:   Ceiling: Unl
Heat Index:   Visibility: 10mi
Dew Point: -1°   Wind: 5mph
Humidity: 61%   Direction: 180°S
Pressure: 30.15"   Gusts: NA
Location:  47.95°N, 116.71°W
Report Text: KCOE 221915Z AUTO 18004KT 10SM CLR 06/M01 A3015 RMK AO1
Loading
Personal Weather Stations






























Interactive Weather Map New forecast layout! Learn more

10-Day Weather Forecast

Advertisements
Track Severe Weather on mobile